Time;durP1;ratioP1;P1;durP2;ratioP2;P2;SDS_P1;SDS_P2;PMS_P1;PMS_P2;Temp;Humidity;BMP_temperature;BMP_pressure;BME280_temperature;BME280_humidity;BME280_pressure;Samples;Min_cycle;Max_cycle;Signal;HPM_P1;HPM_P2
2021/03/28 00:01:50;;;;;;;10.20;3.80;;;5.90;99.90;;;;;;5057983;28;20870;-82
2021/03/28 00:04:20;;;;;;;14.87;5.60;;;6.00;99.90;;;;;;5089889;28;20441;-81
2021/03/28 00:06:47;;;;;;;9.37;4.30;;;6.10;99.90;;;;;;5073836;28;20378;-81
2021/03/28 00:09:16;;;;;;;7.87;4.70;;;6.10;99.90;;;;;;5073760;28;20422;-81
2021/03/28 00:12:00;;;;;;;7.63;4.07;;;6.20;99.90;;;;;;5054949;28;20908;-81
2021/03/28 00:14:52;;;;;;;11.40;4.47;;;6.20;99.90;;;;;;5087950;28;21007;-81
2021/03/28 00:17:41;;;;;;;13.47;4.60;;;6.20;99.90;;;;;;5085330;28;20414;-81
2021/03/28 00:20:16;;;;;;;9.53;4.03;;;6.20;99.90;;;;;;5055152;28;20393;-81
2021/03/28 00:23:07;;;;;;;6.60;3.73;;;6.20;99.90;;;;;;5073187;28;20424;-81
2021/03/28 00:25:52;;;;;;;6.30;3.67;;;6.30;99.90;;;;;;5072256;28;20458;-81
2021/03/28 00:28:30;;;;;;;6.80;4.00;;;6.40;99.90;;;;;;5089191;28;20414;-81
2021/03/28 00:31:29;;;;;;;7.50;4.67;;;6.40;99.90;;;;;;5073309;28;20416;-81
2021/03/28 00:34:16;;;;;;;12.97;4.70;;;6.40;99.90;;;;;;5057880;28;20397;-82
2021/03/28 00:36:54;;;;;;;22.97;5.50;;;6.50;99.90;;;;;;5070909;28;20447;-81
2021/03/28 00:39:42;;;;;;;8.50;4.43;;;6.50;99.90;;;;;;5070755;28;20382;-81
2021/03/28 00:42:39;;;;;;;17.37;5.50;;;6.50;99.90;;;;;;5057251;28;20400;-81
2021/03/28 00:45:20;;;;;;;8.67;4.60;;;6.50;99.90;;;;;;5071907;28;20430;-81
2021/03/28 00:48:19;;;;;;;12.03;5.57;;;6.50;99.90;;;;;;5071640;28;20394;-80
2021/03/28 00:51:07;;;;;;;14.87;5.40;;;6.40;99.90;;;;;;5044948;28;20385;-81
2021/03/28 00:54:10;;;;;;;8.53;4.37;;;6.30;99.90;;;;;;5039472;28;20440;-82
2021/03/28 00:56:51;;;;;;;12.90;5.80;;;6.30;99.90;;;;;;5073777;28;20559;-82
2021/03/28 00:59:34;;;;;;;8.57;4.80;;;6.20;99.90;;;;;;5039413;28;20410;-81
2021/03/28 01:02:28;;;;;;;10.60;4.07;;;6.10;99.90;;;;;;5040030;28;20422;-81
2021/03/28 01:05:00;;;;;;;7.90;4.77;;;6.10;99.90;;;;;;5055157;28;20386;-81
2021/03/28 01:07:56;;;;;;;6.57;4.43;;;6.20;99.90;;;;;;5055175;28;20408;-82
2021/03/28 01:10:41;;;;;;;11.30;5.67;;;6.30;99.90;;;;;;5054348;28;20417;-82
2021/03/28 01:13:45;;;;;;;11.57;5.00;;;6.30;99.90;;;;;;5087934;28;20438;-81
2021/03/28 01:16:48;;;;;;;6.23;5.00;;;6.40;99.90;;;;;;5065490;22;20403;-76
2021/03/28 01:19:32;;;;;;;10.93;5.30;;;6.40;99.90;;;;;;5082784;28;20409;-76
2021/03/28 01:22:04;;;;;;;10.93;4.83;;;6.50;99.90;;;;;;5081557;28;20549;-76
2021/03/28 01:24:49;;;;;;;10.13;5.07;;;6.50;99.90;;;;;;5080310;28;20905;-76
2021/03/28 01:27:45;;;;;;;11.10;4.20;;;6.50;99.90;;;;;;5079248;28;20459;-76
2021/03/28 01:30:18;;;;;;;11.77;5.37;;;6.50;99.90;;;;;;5064265;28;20463;-76
2021/03/28 01:32:58;;;;;;;9.67;4.70;;;6.60;99.90;;;;;;5082249;28;20393;-76
2021/03/28 01:36:06;;;;;;;11.53;5.90;;;6.70;99.90;;;;;;5065126;28;20413;-76
2021/03/28 01:38:43;;;;;;;15.23;5.40;;;6.60;99.90;;;;;;5026006;28;21551;-76
2021/03/28 01:41:18;;;;;;;8.47;4.70;;;6.70;99.90;;;;;;5085041;28;20377;-76
2021/03/28 01:43:54;;;;;;;10.50;4.63;;;6.70;99.90;;;;;;5085059;28;20538;-76
2021/03/28 01:46:29;;;;;;;15.10;5.47;;;6.70;99.90;;;;;;5078554;28;20747;-76
2021/03/28 01:49:20;;;;;;;9.70;5.00;;;6.70;99.90;;;;;;5064577;28;20425;-76
2021/03/28 01:52:01;;;;;;;9.60;4.17;;;6.80;99.90;;;;;;5084294;28;20417;-76
2021/03/28 01:54:50;;;;;;;11.10;4.70;;;6.90;99.90;;;;;;5083986;28;20469;-76
2021/03/28 01:57:45;;;;;;;7.20;4.30;;;6.80;99.90;;;;;;5082010;28;20904;-76
2021/03/28 02:00:33;;;;;;;9.83;4.20;;;6.90;99.90;;;;;;5051868;28;20453;-76
2021/03/28 02:03:17;;;;;;;9.47;4.23;;;6.90;99.90;;;;;;5065393;28;20834;-76
2021/03/28 02:06:03;;;;;;;11.40;4.80;;;6.80;99.90;;;;;;5062041;28;20392;-75
2021/03/28 02:08:53;;;;;;;10.90;4.07;;;6.80;99.90;;;;;;5093161;27;20381;-76
2021/03/28 02:11:34;;;;;;;7.30;3.80;;;6.80;99.90;;;;;;5063172;28;20409;-76
2021/03/28 02:14:30;;;;;;;21.47;5.20;;;6.90;99.90;;;;;;5090282;27;20591;-76
2021/03/28 02:17:17;;;;;;;8.57;4.07;;;7.00;99.90;;;;;;5098332;27;20466;-75
2021/03/28 02:20:27;;;;;;;7.57;3.87;;;7.00;99.90;;;;;;5105740;27;20428;-76
2021/03/28 02:23:50;;;;;;;9.40;4.27;;;6.90;99.90;;;;;;5105595;27;20394;-76
2021/03/28 02:26:33;;;;;;;6.43;4.60;;;6.90;99.90;;;;;;5044643;28;20461;-76
2021/03/28 02:29:25;;;;;;;9.47;3.47;;;6.90;99.90;;;;;;5045446;28;20422;-76
2021/03/28 02:32:32;;;;;;;9.50;3.47;;;6.90;99.90;;;;;;5047153;28;20373;-76
2021/03/28 02:35:14;;;;;;;6.97;3.87;;;6.90;99.90;;;;;;4958867;28;20445;-76
2021/03/28 02:38:05;;;;;;;20.43;4.47;;;6.90;99.90;;;;;;5065939;28;20941;-76
2021/03/28 02:40:59;;;;;;;16.83;4.07;;;6.90;99.90;;;;;;5069641;28;20400;-76
2021/03/28 02:43:46;;;;;;;13.43;4.33;;;6.90;99.90;;;;;;5068501;28;20373;-76
2021/03/28 02:46:45;;;;;;;13.77;4.63;;;6.90;99.90;;;;;;5068428;28;20377;-76
2021/03/28 02:49:39;;;;;;;5.70;4.30;;;6.80;99.90;;;;;;5043231;28;22091;-76
2021/03/28 02:52:05;;;;;;;9.97;4.30;;;6.70;99.90;;;;;;5047877;28;20858;-77
2021/03/28 02:54:45;;;;;;;9.27;4.53;;;6.70;99.90;;;;;;5064313;28;20423;-77
2021/03/28 02:57:23;;;;;;;6.03;3.43;;;6.80;99.90;;;;;;5070768;28;20796;-77
2021/03/28 03:00:14;;;;;;;7.00;3.43;;;6.80;99.90;;;;;;5105902;27;20415;-77
2021/03/28 03:03:07;;;;;;;7.10;4.33;;;6.80;99.90;;;;;;5107468;27;20454;-76
2021/03/28 03:06:04;;;;;;;10.37;3.80;;;6.80;99.90;;;;;;5103228;27;20955;-77
2021/03/28 03:08:43;;;;;;;7.10;3.90;;;6.70;99.90;;;;;;5107885;27;20418;-77
2021/03/28 03:11:21;;;;;;;6.70;3.27;;;6.60;99.90;;;;;;5105502;27;20417;-76
2021/03/28 03:14:08;;;;;;;6.13;3.13;;;6.50;99.90;;;;;;5084460;28;20876;-76
2021/03/28 03:16:58;;;;;;;15.53;3.27;;;6.40;99.90;;;;;;5107617;27;20548;-77
2021/03/28 03:20:12;;;;;;;6.80;3.40;;;6.40;99.90;;;;;;5084429;27;21127;-77
2021/03/28 03:22:56;;;;;;;16.93;3.67;;;6.30;99.90;;;;;;5074397;28;20417;-76
2021/03/28 03:25:40;;;;;;;12.70;3.30;;;6.20;99.90;;;;;;5085418;27;20479;-77
2021/03/28 03:28:27;;;;;;;10.70;3.50;;;6.20;99.90;;;;;;5106242;27;20467;-76
2021/03/28 03:31:30;;;;;;;5.30;2.93;;;6.30;99.90;;;;;;5106765;27;20378;-76
2021/03/28 03:34:18;;;;;;;7.17;3.50;;;6.40;99.90;;;;;;5101456;27;20428;-76
2021/03/28 03:36:59;;;;;;;3.97;3.10;;;6.60;99.90;;;;;;5103408;27;20448;-77
2021/03/28 03:39:49;;;;;;;7.70;3.40;;;6.60;99.90;;;;;;5088136;28;20396;-77
2021/03/28 03:42:42;;;;;;;11.63;3.40;;;6.50;99.90;;;;;;5103890;27;20396;-77
2021/03/28 03:45:34;;;;;;;8.97;4.57;;;6.60;99.90;;;;;;5087550;27;20578;-77
2021/03/28 03:48:18;;;;;;;10.97;4.37;;;6.50;99.90;;;;;;5085625;27;20421;-77
2021/03/28 03:51:12;;;;;;;15.40;3.50;;;6.60;99.90;;;;;;5108301;27;20405;-76
2021/03/28 03:54:02;;;;;;;6.60;3.80;;;6.60;99.90;;;;;;5088674;28;20843;-76
2021/03/28 03:56:50;;;;;;;5.50;2.80;;;6.60;99.90;;;;;;5106135;27;20432;-76
2021/03/28 03:59:35;;;;;;;7.93;3.27;;;6.60;99.90;;;;;;5081382;27;20417;-77
2021/03/28 04:02:35;;;;;;;9.07;3.23;;;6.60;99.90;;;;;;5085989;27;20481;-76
2021/03/28 04:05:33;;;;;;;7.33;2.93;;;6.60;99.90;;;;;;5106555;27;20413;-77
2021/03/28 04:08:37;;;;;;;10.57;2.80;;;6.50;99.90;;;;;;5050901;27;20395;-77
2021/03/28 04:11:31;;;;;;;5.93;2.90;;;6.40;99.90;;;;;;5107209;27;20474;-76
2021/03/28 04:14:08;;;;;;;4.00;2.90;;;6.40;99.90;;;;;;5104037;27;20378;-76
2021/03/28 04:16:39;;;;;;;11.37;2.77;;;6.50;99.90;;;;;;5083996;28;20421;-76
2021/03/28 04:19:28;;;;;;;10.00;3.07;;;6.50;99.90;;;;;;5104247;27;20397;-76
2021/03/28 04:22:05;;;;;;;6.53;2.57;;;6.40;99.90;;;;;;5068446;27;21129;-76
2021/03/28 04:24:49;;;;;;;4.63;3.67;;;6.50;99.90;;;;;;5108479;27;20430;-77
2021/03/28 04:27:30;;;;;;;4.40;2.60;;;6.60;99.90;;;;;;5085400;27;20473;-76
2021/03/28 04:29:56;;;;;;;10.20;3.40;;;6.60;99.90;;;;;;5104464;27;20984;-77
2021/03/28 04:32:44;;;;;;;5.37;2.83;;;6.60;99.90;;;;;;5083079;27;20422;-77
2021/03/28 04:35:24;;;;;;;5.07;2.67;;;6.60;99.90;;;;;;5103008;27;20226;-77
2021/03/28 04:38:08;;;;;;;7.03;3.03;;;6.70;99.90;;;;;;5106865;27;20453;-76
2021/03/28 04:40:57;;;;;;;5.50;2.77;;;6.70;99.90;;;;;;5106744;27;20382;-76
2021/03/28 04:43:53;;;;;;;8.73;3.37;;;6.80;99.90;;;;;;5088557;28;20412;-77
2021/03/28 04:46:47;;;;;;;8.10;2.73;;;6.80;99.90;;;;;;5088352;28;20380;-76
2021/03/28 04:49:40;;;;;;;9.13;2.83;;;6.80;99.90;;;;;;5101975;27;20452;-77
2021/03/28 04:52:44;;;;;;;6.90;3.23;;;6.90;99.90;;;;;;5106763;27;20433;-76
2021/03/28 04:55:09;;;;;;;12.17;4.50;;;7.00;99.90;;;;;;5089362;28;20408;-76
2021/03/28 04:58:14;;;;;;;11.50;3.30;;;7.00;99.90;;;;;;5076513;28;20440;-76
2021/03/28 05:01:05;;;;;;;7.03;3.23;;;7.10;99.90;;;;;;5088899;27;20223;-76
2021/03/28 05:03:33;;;;;;;10.40;3.10;;;7.20;99.90;;;;;;5107934;27;20413;-76
2021/03/28 05:06:24;;;;;;;5.83;3.07;;;7.20;99.90;;;;;;5109146;27;20949;-77
2021/03/28 05:08:53;;;;;;;5.57;2.80;;;7.30;99.90;;;;;;5108123;27;20511;-76
2021/03/28 05:12:04;;;;;;;6.83;2.63;;;7.30;99.90;;;;;;5108987;27;20405;-77
2021/03/28 05:14:58;;;;;;;7.43;3.37;;;7.40;99.90;;;;;;5025384;27;20409;-75
2021/03/28 05:17:42;;;;;;;8.00;3.53;;;7.30;99.90;;;;;;5101429;27;20544;-76
2021/03/28 05:20:52;;;;;;;13.83;3.63;;;7.40;99.90;;;;;;5109449;28;20433;-77
2021/03/28 05:23:46;;;;;;;5.10;3.37;;;7.40;99.90;;;;;;5069506;27;20521;-76
2021/03/28 05:26:39;;;;;;;5.40;2.80;;;7.40;99.90;;;;;;5101508;27;20398;-77
2021/03/28 05:29:27;;;;;;;6.27;2.97;;;7.50;99.90;;;;;;5091245;28;20446;-76
2021/03/28 05:32:14;;;;;;;9.93;3.13;;;7.50;99.90;;;;;;5108182;27;20388;-76
2021/03/28 05:34:49;;;;;;;3.83;2.83;;;7.50;99.90;;;;;;5088680;28;20830;-76
2021/03/28 05:37:38;;;;;;;4.30;2.40;;;7.60;99.90;;;;;;5086614;28;20399;-76
2021/03/28 05:40:20;;;;;;;6.80;2.93;;;7.60;99.90;;;;;;5106898;27;20403;-77
2021/03/28 05:43:23;;;;;;;3.90;3.13;;;7.60;99.90;;;;;;5108235;27;20384;-76
2021/03/28 05:46:25;;;;;;;11.30;3.47;;;7.60;99.90;;;;;;5090532;28;20535;-76
2021/03/28 05:49:16;;;;;;;4.33;3.07;;;7.60;99.90;;;;;;5106209;27;20493;-77
2021/03/28 05:51:45;;;;;;;10.93;3.87;;;7.60;99.90;;;;;;5106808;27;20786;-77
2021/03/28 05:55:00;;;;;;;5.47;2.87;;;7.60;99.90;;;;;;5089635;28;20375;-76
2021/03/28 05:58:00;;;;;;;5.03;2.43;;;7.70;99.90;;;;;;5104051;27;20516;-76
2021/03/28 06:00:50;;;;;;;6.13;2.97;;;7.70;99.90;;;;;;5104309;27;20846;-76
2021/03/28 06:03:34;;;;;;;6.33;2.70;;;7.70;99.90;;;;;;5075349;28;20457;-77
2021/03/28 06:06:29;;;;;;;11.13;3.57;;;7.70;99.90;;;;;;5105177;27;20876;-79
2021/03/28 06:09:37;;;;;;;4.03;2.67;;;7.90;99.90;;;;;;5109221;27;20376;-79
2021/03/28 06:12:32;;;;;;;4.43;2.47;;;8.10;99.90;;;;;;5087829;28;20914;-77
2021/03/28 06:15:24;;;;;;;6.20;2.73;;;8.10;99.90;;;;;;5100011;27;20777;-77
2021/03/28 06:18:08;;;;;;;5.37;3.10;;;8.10;99.90;;;;;;5110740;28;20398;-77
2021/03/28 06:20:57;;;;;;;3.53;2.63;;;8.20;99.90;;;;;;5090582;28;20460;-78
2021/03/28 06:23:54;;;;;;;7.93;3.53;;;8.30;99.90;;;;;;5107281;27;20526;-77
2021/03/28 06:26:38;;;;;;;4.77;2.53;;;8.40;99.90;;;;;;5109267;28;20409;-77
2021/03/28 06:29:31;;;;;;;9.93;3.40;;;8.60;99.90;;;;;;5109605;27;20383;-77
2021/03/28 06:32:45;;;;;;;9.10;3.10;;;8.50;99.90;;;;;;5088990;28;20398;-77
2021/03/28 06:35:14;;;;;;;5.10;2.70;;;8.60;99.90;;;;;;5109364;27;20395;-77
2021/03/28 06:38:17;;;;;;;6.97;2.87;;;8.70;99.90;;;;;;5102250;27;20436;-76
2021/03/28 06:41:21;;;;;;;8.97;2.57;;;8.70;99.90;;;;;;5089798;28;20411;-76
2021/03/28 06:44:05;;;;;;;6.00;2.80;;;8.60;99.90;;;;;;5103717;27;20432;-77
2021/03/28 06:46:59;;;;;;;4.37;1.83;;;8.70;99.90;;;;;;5084558;28;20420;-76
2021/03/28 06:49:36;;;;;;;5.37;2.60;;;8.80;99.90;;;;;;5083948;28;20416;-76
2021/03/28 06:52:34;;;;;;;5.23;2.77;;;8.90;99.90;;;;;;5109990;28;20417;-77
2021/03/28 06:55:37;;;;;;;8.40;3.20;;;8.80;99.90;;;;;;5090202;28;20417;-77
2021/03/28 06:58:27;;;;;;;8.90;2.77;;;8.90;99.90;;;;;;5109441;27;20861;-77
2021/03/28 07:00:55;;;;;;;5.00;2.73;;;8.80;99.90;;;;;;5103677;27;20417;-77
2021/03/28 07:03:33;;;;;;;7.30;2.90;;;8.90;99.90;;;;;;5102787;27;20404;-76
2021/03/28 07:06:06;;;;;;;4.37;2.70;;;8.90;99.90;;;;;;5083931;27;20848;-77
2021/03/28 07:08:37;;;;;;;20.80;2.80;;;8.80;99.90;;;;;;5101397;27;21412;-77
2021/03/28 07:11:12;;;;;;;2.37;2.17;;;8.80;99.90;;;;;;5086839;27;20391;-76
2021/03/28 07:14:03;;;;;;;6.27;2.90;;;8.90;99.90;;;;;;5102607;27;20371;-78
2021/03/28 07:16:59;;;;;;;6.97;3.00;;;9.10;99.90;;;;;;5087623;27;20441;-78
2021/03/28 07:19:36;;;;;;;5.47;3.10;;;9.20;99.90;;;;;;5103457;27;20384;-78
2021/03/28 07:22:11;;;;;;;6.30;4.00;;;9.20;99.90;;;;;;5105120;27;20465;-77
2021/03/28 07:25:14;;;;;;;7.60;3.80;;;9.20;99.90;;;;;;5082425;28;20393;-77
2021/03/28 07:27:46;;;;;;;10.93;4.17;;;9.20;99.90;;;;;;5105175;27;20408;-77
2021/03/28 07:30:43;;;;;;;12.93;5.60;;;9.40;99.90;;;;;;5089124;28;20931;-77
2021/03/28 07:33:27;;;;;;;10.70;7.10;;;9.50;99.90;;;;;;5062848;28;20421;-78
2021/03/28 07:36:21;;;;;;;6.97;3.70;;;9.60;99.90;;;;;;5070830;28;21106;-77
2021/03/28 07:39:27;;;;;;;8.37;3.07;;;9.70;99.90;;;;;;5105868;27;20425;-77
2021/03/28 07:42:07;;;;;;;4.50;2.97;;;9.80;99.90;;;;;;5099377;27;20877;-77
2021/03/28 07:44:57;;;;;;;26.07;3.50;;;9.70;99.90;;;;;;5103343;27;20487;-77
2021/03/28 07:48:00;;;;;;;9.50;3.53;;;9.80;99.90;;;;;;5083541;27;20391;-77
2021/03/28 07:50:45;;;;;;;5.53;3.10;;;10.00;99.90;;;;;;5085477;28;20387;-77
2021/03/28 07:53:38;;;;;;;9.70;3.70;;;9.80;99.90;;;;;;5106457;28;20412;-78
2021/03/28 07:56:42;;;;;;;11.50;2.63;;;10.00;99.90;;;;;;5089056;28;20915;-77
2021/03/28 07:59:19;;;;;;;5.10;2.83;;;10.00;99.90;;;;;;5084931;28;20425;-77
2021/03/28 08:02:02;;;;;;;9.50;3.57;;;10.20;99.90;;;;;;5105454;27;20403;-77
2021/03/28 08:04:42;;;;;;;8.77;3.40;;;10.40;99.90;;;;;;5088878;27;20443;-77
2021/03/28 08:07:29;;;;;;;5.63;2.77;;;10.20;99.90;;;;;;5108221;27;20552;-77
2021/03/28 08:10:16;;;;;;;8.13;4.33;;;10.40;99.90;;;;;;5087913;28;20507;-78
2021/03/28 08:13:26;;;;;;;7.37;3.10;;;10.40;99.90;;;;;;5106678;27;20448;-77
2021/03/28 08:16:26;;;;;;;7.23;4.10;;;10.60;99.90;;;;;;5085584;28;20507;-77
2021/03/28 08:19:11;;;;;;;8.23;3.67;;;10.90;99.90;;;;;;5107570;27;20948;-78
2021/03/28 08:21:51;;;;;;;4.13;2.70;;;10.80;99.90;;;;;;5088578;28;20490;-78
2021/03/28 08:24:50;;;;;;;3.37;2.97;;;11.00;99.90;;;;;;5084459;28;20383;-78
2021/03/28 08:27:38;;;;;;;5.23;3.60;;;11.40;99.90;;;;;;5105422;27;20459;-78
2021/03/28 08:30:41;;;;;;;6.10;3.30;;;11.20;99.90;;;;;;5105466;27;20453;-78
2021/03/28 08:33:39;;;;;;;7.30;4.50;;;11.20;99.90;;;;;;5105848;27;20437;-77
2021/03/28 08:36:21;;;;;;;6.57;3.40;;;11.50;99.90;;;;;;5083039;28;20832;-77
2021/03/28 08:39:12;;;;;;;4.47;3.37;;;11.30;99.90;;;;;;5108588;27;20886;-78
2021/03/28 08:42:20;;;;;;;5.50;3.30;;;11.80;99.90;;;;;;5093216;28;20926;-78
2021/03/28 08:44:49;;;;;;;9.73;3.27;;;11.60;99.90;;;;;;5067624;27;20410;-78
2021/03/28 08:47:24;;;;;;;4.80;3.23;;;11.80;99.90;;;;;;5088864;28;20964;-78
2021/03/28 08:50:11;;;;;;;6.63;3.60;;;11.60;99.90;;;;;;5111251;28;20402;-78
2021/03/28 08:53:06;;;;;;;8.57;6.10;;;11.50;99.90;;;;;;5073208;28;20420;-78
2021/03/28 08:56:00;;;;;;;6.60;3.30;;;11.60;99.90;;;;;;5106871;28;20948;-77
2021/03/28 08:58:34;;;;;;;6.53;3.47;;;12.80;99.90;;;;;;5108547;28;20504;-77
2021/03/28 09:01:20;;;;;;;7.30;3.50;;;12.50;99.90;;;;;;5084973;27;22162;-78
2021/03/28 09:04:04;;;;;;;5.87;2.90;;;11.90;99.90;;;;;;5065286;27;20483;-77
2021/03/28 09:07:12;;;;;;;4.70;2.30;;;12.20;99.90;;;;;;5099248;27;20413;-77
2021/03/28 09:10:00;;;;;;;9.03;3.20;;;13.00;99.90;;;;;;5018494;28;20887;-78
2021/03/28 09:13:01;;;;;;;5.77;4.20;;;14.40;99.90;;;;;;4999342;28;20424;-78
2021/03/28 09:15:30;;;;;;;15.67;3.47;;;14.90;98.60;;;;;;5020274;28;20460;-78
2021/03/28 09:18:23;;;;;;;3.87;3.50;;;16.00;97.70;;;;;;4992899;28;20980;-77
2021/03/28 09:21:01;;;;;;;6.57;3.90;;;15.10;97.00;;;;;;4992995;28;21233;-78
2021/03/28 09:23:52;;;;;;;13.23;3.50;;;14.80;97.00;;;;;;4995592;28;20503;-78
2021/03/28 09:26:40;;;;;;;5.53;2.37;;;15.50;97.50;;;;;;5014211;28;20472;-78
2021/03/28 09:29:35;;;;;;;7.07;3.43;;;15.80;96.20;;;;;;5010776;28;20401;-78
2021/03/28 09:32:38;;;;;;;11.33;3.80;;;15.80;95.80;;;;;;4994751;28;20500;-78
2021/03/28 09:35:38;;;;;;;8.73;3.03;;;16.30;92.90;;;;;;5011457;28;20416;-78
2021/03/28 09:38:43;;;;;;;6.73;3.70;;;15.80;92.90;;;;;;4986583;28;21497;-77
2021/03/28 09:41:14;;;;;;;6.93;3.77;;;15.10;94.40;;;;;;5083061;28;21015;-78
2021/03/28 09:44:05;;;;;;;6.87;2.60;;;14.40;96.50;;;;;;5100008;28;20397;-78
2021/03/28 09:46:34;;;;;;;2.90;2.40;;;14.50;96.00;;;;;;5093977;28;20468;-78
2021/03/28 09:49:17;;;;;;;7.73;3.70;;;15.00;96.40;;;;;;5095586;28;20396;-78
2021/03/28 09:51:50;;;;;;;8.40;3.10;;;15.70;96.20;;;;;;5094401;28;20852;-77
2021/03/28 09:54:42;;;;;;;7.60;3.27;;;15.40;94.60;;;;;;5078822;28;20505;-79
2021/03/28 09:57:22;;;;;;;10.90;3.83;;;16.80;93.10;;;;;;5073446;28;20736;-78
2021/03/28 10:00:26;;;;;;;3.00;2.47;;;16.90;91.60;;;;;;5069769;28;20413;-79
2021/03/28 10:03:24;;;;;;;7.40;3.40;;;16.60;90.60;;;;;;5087954;28;20974;-77
2021/03/28 10:06:03;;;;;;;4.87;2.73;;;15.20;90.90;;;;;;5082191;28;20425;-78
2021/03/28 10:08:41;;;;;;;5.70;2.83;;;16.50;88.80;;;;;;5077493;28;21180;-79
2021/03/28 10:11:16;;;;;;;5.07;2.00;;;16.10;80.20;;;;;;5072446;28;20790;-77
2021/03/28 10:13:51;;;;;;;4.80;2.17;;;16.00;75.90;;;;;;5065630;28;20470;-77
2021/03/28 10:16:38;;;;;;;5.17;2.03;;;15.80;74.20;;;;;;5082206;27;20431;-77
2021/03/28 10:19:17;;;;;;;3.63;2.40;;;16.60;74.10;;;;;;5106261;27;20506;-79
2021/03/28 10:22:05;;;;;;;3.70;2.53;;;16.60;69.50;;;;;;5085545;28;20430;-78
2021/03/28 10:24:47;;;;;;;3.67;2.67;;;16.20;68.20;;;;;;5108881;27;20424;-78
2021/03/28 10:27:44;;;;;;;4.07;2.20;;;16.20;65.80;;;;;;5091617;28;20421;-78
2021/03/28 10:30:15;;;;;;;6.07;1.70;;;14.60;69.20;;;;;;5108571;27;20508;-78
2021/03/28 10:33:21;;;;;;;2.77;2.00;;;14.90;72.60;;;;;;5107732;28;20387;-78
2021/03/28 10:36:26;;;;;;;2.40;2.07;;;14.80;71.90;;;;;;5088397;28;20429;-77
2021/03/28 10:39:30;;;;;;;4.87;2.37;;;14.50;72.60;;;;;;5089838;28;20643;-77
2021/03/28 10:42:10;;;;;;;5.73;2.10;;;14.90;74.50;;;;;;5107157;27;20447;-78
2021/03/28 10:44:43;;;;;;;4.90;2.90;;;15.10;73.30;;;;;;5106354;27;20413;-77
2021/03/28 10:47:46;;;;;;;4.20;2.17;;;15.60;74.30;;;;;;5107124;28;20425;-77
2021/03/28 10:50:54;;;;;;;5.93;2.80;;;15.40;73.60;;;;;;5088284;28;20395;-78
2021/03/28 10:54:02;;;;;;;4.57;2.17;;;14.60;74.10;;;;;;5088413;28;20913;-78
2021/03/28 10:56:56;;;;;;;4.00;2.30;;;14.70;75.30;;;;;;5097407;28;20564;-78
2021/03/28 10:59:40;;;;;;;4.83;3.03;;;14.20;76.10;;;;;;5102962;27;20471;-78
2021/03/28 11:02:27;;;;;;;5.20;2.70;;;14.60;75.90;;;;;;5100468;27;20886;-78
2021/03/28 11:05:02;;;;;;;8.17;3.20;;;14.40;76.40;;;;;;5107985;28;20470;-79
2021/03/28 11:08:07;;;;;;;6.70;2.50;;;14.90;77.60;;;;;;5106900;27;20540;-78
2021/03/28 11:10:47;;;;;;;2.03;1.83;;;15.80;75.80;;;;;;5087240;28;20470;-78
2021/03/28 11:13:19;;;;;;;4.23;2.40;;;16.40;72.20;;;;;;5090319;28;20409;-78
2021/03/28 11:16:15;;;;;;;5.23;1.70;;;16.10;69.80;;;;;;5105372;27;20428;-78
2021/03/28 11:18:56;;;;;;;4.57;1.93;;;15.10;71.20;;;;;;5108686;28;20461;-79
2021/03/28 11:21:41;;;;;;;6.27;1.93;;;15.30;72.90;;;;;;5069217;27;20401;-79
2021/03/28 11:24:32;;;;;;;7.27;2.03;;;15.70;73.90;;;;;;5110554;28;20435;-79
2021/03/28 11:27:28;;;;;;;5.60;2.80;;;16.70;71.70;;;;;;5104480;27;20415;-80
2021/03/28 11:30:15;;;;;;;4.37;2.40;;;15.20;70.50;;;;;;5103231;27;20412;-77
2021/03/28 11:32:56;;;;;;;3.87;2.50;;;14.90;73.10;;;;;;5086152;28;20392;-80
2021/03/28 11:36:06;;;;;;;6.10;2.50;;;15.00;74.00;;;;;;5102142;27;20424;-79
2021/03/28 11:38:40;;;;;;;4.90;1.80;;;15.10;74.50;;;;;;5107281;27;20428;-79
2021/03/28 11:41:11;;;;;;;4.60;2.87;;;14.40;73.30;;;;;;5105524;27;20409;-78
2021/03/28 11:43:52;;;;;;;4.13;2.37;;;14.40;74.00;;;;;;5086605;28;20434;-79
2021/03/28 11:46:30;;;;;;;3.10;2.37;;;14.60;75.50;;;;;;5088957;27;21282;-79
2021/03/28 11:48:55;;;;;;;7.07;2.40;;;14.80;75.50;;;;;;5068660;27;20905;-79
2021/03/28 11:51:33;;;;;;;7.07;2.50;;;14.80;76.20;;;;;;5108357;27;20384;-79
2021/03/28 11:54:08;;;;;;;4.20;2.87;;;14.90;75.30;;;;;;5088827;27;20682;-78
2021/03/28 11:56:43;;;;;;;5.00;2.90;;;15.10;74.80;;;;;;5087166;28;20433;-79
2021/03/28 11:59:19;;;;;;;2.60;2.40;;;15.30;75.40;;;;;;5089166;27;20409;-79
2021/03/28 12:02:33;;;;;;;5.80;3.93;;;14.80;73.80;;;;;;5107564;27;20405;-79
2021/03/28 12:04:59;;;;;;;8.80;3.13;;;14.60;75.50;;;;;;5020702;28;20404;-78
2021/03/28 12:07:45;;;;;;;3.90;2.80;;;14.80;76.90;;;;;;4990548;28;20966;-79
2021/03/28 12:10:10;;;;;;;5.53;2.73;;;14.70;77.80;;;;;;5000332;28;20294;-79
2021/03/28 12:12:48;;;;;;;7.47;2.47;;;14.60;78.40;;;;;;4990659;28;21003;-78
2021/03/28 12:15:44;;;;;;;6.70;2.03;;;14.80;79.60;;;;;;4981514;28;20257;-78
2021/03/28 12:18:25;;;;;;;8.07;2.93;;;15.10;78.10;;;;;;5021597;28;20447;-79
2021/03/28 12:21:03;;;;;;;13.83;3.30;;;14.70;76.20;;;;;;5026142;28;20407;-78
2021/03/28 12:23:37;;;;;;;5.83;2.13;;;14.60;76.50;;;;;;5028750;28;20451;-78
2021/03/28 12:26:33;;;;;;;6.97;2.40;;;14.80;76.20;;;;;;5028176;28;20855;-78
2021/03/28 12:29:03;;;;;;;16.43;3.00;;;15.10;74.40;;;;;;5027448;28;20386;-78
2021/03/28 12:31:33;;;;;;;6.30;2.97;;;15.20;73.40;;;;;;5026696;28;20848;-80
2021/03/28 12:34:15;;;;;;;3.77;2.50;;;15.00;72.80;;;;;;5031656;28;21015;-79
2021/03/28 12:37:05;;;;;;;4.97;2.20;;;15.20;72.40;;;;;;5030562;28;20889;-78
2021/03/28 12:39:43;;;;;;;5.37;2.47;;;15.00;71.70;;;;;;5073970;28;20927;-78
2021/03/28 12:42:33;;;;;;;8.53;3.80;;;14.80;71.50;;;;;;5072824;28;20434;-78
2021/03/28 12:45:08;;;;;;;8.20;3.93;;;14.80;72.10;;;;;;5105930;27;20384;-78
2021/03/28 12:47:49;;;;;;;4.70;2.67;;;14.80;71.80;;;;;;5101383;28;20873;-77
2021/03/28 12:50:15;;;;;;;5.87;3.00;;;14.90;72.40;;;;;;5108270;27;20376;-78
2021/03/28 12:52:51;;;;;;;6.23;2.37;;;14.60;72.30;;;;;;5088413;28;20432;-78
2021/03/28 12:55:28;;;;;;;6.67;3.53;;;15.10;73.90;;;;;;5089753;27;20222;-78
2021/03/28 12:58:07;;;;;;;6.47;3.27;;;14.60;72.60;;;;;;5104806;28;20421;-78
2021/03/28 13:01:01;;;;;;;4.93;2.40;;;14.50;73.90;;;;;;5097872;27;20431;-77
2021/03/28 13:03:43;;;;;;;14.93;2.80;;;14.70;73.90;;;;;;5104517;27;20419;-78
2021/03/28 13:06:17;;;;;;;7.70;3.83;;;14.50;75.50;;;;;;5082423;27;20428;-78
2021/03/28 13:08:54;;;;;;;5.90;3.27;;;14.70;75.50;;;;;;5090921;28;20411;-78
2021/03/28 13:11:41;;;;;;;8.83;3.10;;;14.50;74.10;;;;;;5088771;28;20932;-78
2021/03/28 13:14:23;;;;;;;3.13;2.00;;;14.30;74.20;;;;;;5090582;28;20905;-77
2021/03/28 13:17:11;;;;;;;4.73;2.30;;;14.50;74.20;;;;;;5112405;28;20431;-78
2021/03/28 13:19:38;;;;;;;10.63;2.40;;;14.60;74.10;;;;;;5108593;27;20364;-78
2021/03/28 13:22:35;;;;;;;5.80;2.90;;;14.90;74.30;;;;;;5109587;28;20389;-77
2021/03/28 13:25:31;;;;;;;5.97;2.67;;;14.90;73.80;;;;;;5107110;27;20855;-78
2021/03/28 13:27:59;;;;;;;4.43;2.00;;;14.70;71.80;;;;;;5095855;28;20424;-78
2021/03/28 13:30:41;;;;;;;4.80;2.20;;;14.70;73.10;;;;;;5108003;28;20391;-78
2021/03/28 13:33:33;;;;;;;6.50;2.50;;;14.80;74.10;;;;;;5107871;28;20397;-78
2021/03/28 13:35:59;;;;;;;3.07;2.70;;;15.00;73.90;;;;;;5110251;28;20401;-78
2021/03/28 13:38:25;;;;;;;7.23;2.97;;;15.20;73.20;;;;;;5093924;27;20514;-78
2021/03/28 13:40:52;;;;;;;6.97;2.60;;;15.00;73.00;;;;;;5088374;28;20419;-78
2021/03/28 13:43:28;;;;;;;5.73;2.40;;;15.40;73.50;;;;;;5108355;27;21072;-78
2021/03/28 13:46:26;;;;;;;8.03;2.70;;;15.40;72.70;;;;;;5106095;27;20413;-78
2021/03/28 13:49:04;;;;;;;6.20;2.73;;;14.80;71.00;;;;;;5085335;28;20413;-78
2021/03/28 13:51:31;;;;;;;3.27;2.30;;;14.30;70.60;;;;;;5092152;28;20393;-78
2021/03/28 13:54:06;;;;;;;7.63;2.60;;;14.50;71.20;;;;;;5110533;27;20429;-78
2021/03/28 13:56:46;;;;;;;5.20;2.70;;;14.40;70.10;;;;;;5103532;28;20899;-78
2021/03/28 13:59:21;;;;;;;5.30;2.53;;;14.40;69.40;;;;;;5094309;28;20887;-78
2021/03/28 14:01:49;;;;;;;6.13;3.13;;;14.40;69.00;;;;;;5110496;27;20847;-78
2021/03/28 14:04:29;;;;;;;9.07;2.23;;;14.40;69.20;;;;;;5077224;28;20411;-78
2021/03/28 14:07:21;;;;;;;4.33;2.37;;;14.40;69.70;;;;;;5088353;27;20409;-79
2021/03/28 14:10:05;;;;;;;4.00;2.40;;;14.30;69.80;;;;;;5073105;28;20915;-79
2021/03/28 14:12:54;;;;;;;5.40;2.33;;;14.20;70.50;;;;;;5073922;28;20401;-78
2021/03/28 14:15:38;;;;;;;5.10;2.40;;;14.30;70.10;;;;;;5090927;28;20502;-78
2021/03/28 14:18:18;;;;;;;5.23;2.03;;;14.30;71.00;;;;;;5069473;28;20553;-77
2021/03/28 14:20:51;;;;;;;9.13;2.17;;;14.40;72.00;;;;;;5069178;28;20942;-78
2021/03/28 14:23:24;;;;;;;6.33;3.23;;;14.40;72.60;;;;;;5069144;28;20438;-78
2021/03/28 14:26:16;;;;;;;5.40;2.10;;;14.50;73.40;;;;;;5070815;28;20523;-79
2021/03/28 14:28:47;;;;;;;3.60;2.70;;;14.50;72.70;;;;;;5070120;28;20445;-78
2021/03/28 14:31:36;;;;;;;6.17;1.90;;;14.20;71.50;;;;;;5049900;28;20543;-79